sensor_id;sensor_type;location;lat;lon;timestamp;temperature;humidity
9425;DHT22;17139;52.140;11.636;2022-08-03T00:01:07;21.70;39.30
9425;DHT22;17139;52.140;11.636;2022-08-03T00:03:34;21.70;39.30
9425;DHT22;17139;52.140;11.636;2022-08-03T00:06:03;21.70;39.50
9425;DHT22;17139;52.140;11.636;2022-08-03T00:08:30;21.60;39.60
9425;DHT22;17139;52.140;11.636;2022-08-03T00:10:58;21.60;39.70
9425;DHT22;17139;52.140;11.636;2022-08-03T00:13:26;21.60;39.80
9425;DHT22;17139;52.140;11.636;2022-08-03T00:15:54;21.60;39.80
9425;DHT22;17139;52.140;11.636;2022-08-03T00:18:21;21.60;39.90
9425;DHT22;17139;52.140;11.636;2022-08-03T00:20:49;21.50;39.80
9425;DHT22;17139;52.140;11.636;2022-08-03T00:23:17;21.50;39.90
9425;DHT22;17139;52.140;11.636;2022-08-03T00:25:44;21.50;39.90
9425;DHT22;17139;52.140;11.636;2022-08-03T00:28:11;21.40;40.50
9425;DHT22;17139;52.140;11.636;2022-08-03T00:30:39;21.40;39.80
9425;DHT22;17139;52.140;11.636;2022-08-03T00:33:06;21.30;39.80
9425;DHT22;17139;52.140;11.636;2022-08-03T00:35:35;21.30;39.80
9425;DHT22;17139;52.140;11.636;2022-08-03T00:38:02;21.30;39.90
9425;DHT22;17139;52.140;11.636;2022-08-03T00:40:31;21.30;39.90
9425;DHT22;17139;52.140;11.636;2022-08-03T00:43:00;21.30;39.90
9425;DHT22;17139;52.140;11.636;2022-08-03T00:45:30;21.30;40.00
9425;DHT22;17139;52.140;11.636;2022-08-03T00:47:58;21.30;40.00
9425;DHT22;17139;52.140;11.636;2022-08-03T00:50:27;22.10;39.50
9425;DHT22;17139;52.140;11.636;2022-08-03T00:52:58;21.90;39.30
9425;DHT22;17139;52.140;11.636;2022-08-03T00:55:26;21.60;39.60
9425;DHT22;17139;52.140;11.636;2022-08-03T00:57:55;22.30;39.20
9425;DHT22;17139;52.140;11.636;2022-08-03T01:00:25;22.00;39.20
9425;DHT22;17139;52.140;11.636;2022-08-03T01:02:53;21.70;39.60
9425;DHT22;17139;52.140;11.636;2022-08-03T01:05:20;21.60;39.80
9425;DHT22;17139;52.140;11.636;2022-08-03T01:07:59;21.40;39.80
9425;DHT22;17139;52.140;11.636;2022-08-03T01:10:32;21.40;40.10
9425;DHT22;17139;52.140;11.636;2022-08-03T01:13:15;21.30;40.30
9425;DHT22;17139;52.140;11.636;2022-08-03T01:15:49;21.20;40.30
9425;DHT22;17139;52.140;11.636;2022-08-03T01:18:23;21.10;40.30
9425;DHT22;17139;52.140;11.636;2022-08-03T01:20:54;21.90;39.80
9425;DHT22;17139;52.140;11.636;2022-08-03T01:23:42;21.60;39.70
9425;DHT22;17139;52.140;11.636;2022-08-03T01:26:30;21.40;40.10
9425;DHT22;17139;52.140;11.636;2022-08-03T01:29:16;22.20;39.80
9425;DHT22;17139;52.140;11.636;2022-08-03T01:31:52;21.70;40.00
9425;DHT22;17139;52.140;11.636;2022-08-03T01:34:19;21.40;40.10
9425;DHT22;17139;52.140;11.636;2022-08-03T01:36:52;21.20;40.30
9425;DHT22;17139;52.140;11.636;2022-08-03T01:39:23;21.10;40.60
9425;DHT22;17139;52.140;11.636;2022-08-03T01:41:55;21.10;40.60
9425;DHT22;17139;52.140;11.636;2022-08-03T01:44:25;21.00;40.60
9425;DHT22;17139;52.140;11.636;2022-08-03T01:46:57;21.00;40.60
9425;DHT22;17139;52.140;11.636;2022-08-03T01:49:26;21.10;40.80
9425;DHT22;17139;52.140;11.636;2022-08-03T01:51:55;21.00;40.50
9425;DHT22;17139;52.140;11.636;2022-08-03T01:54:24;20.90;40.50
9425;DHT22;17139;52.140;11.636;2022-08-03T01:56:52;20.90;40.80
9425;DHT22;17139;52.140;11.636;2022-08-03T01:59:21;20.90;40.60
9425;DHT22;17139;52.140;11.636;2022-08-03T02:01:49;20.80;40.60
9425;DHT22;17139;52.140;11.636;2022-08-03T02:04:18;20.80;40.60
9425;DHT22;17139;52.140;11.636;2022-08-03T02:06:47;20.80;40.70
9425;DHT22;17139;52.140;11.636;2022-08-03T02:09:17;20.80;40.70
9425;DHT22;17139;52.140;11.636;2022-08-03T02:11:46;20.80;40.70
9425;DHT22;17139;52.140;11.636;2022-08-03T02:14:15;20.80;40.80
9425;DHT22;17139;52.140;11.636;2022-08-03T02:16:46;20.80;40.80
9425;DHT22;17139;52.140;11.636;2022-08-03T02:19:16;20.80;40.90
9425;DHT22;17139;52.140;11.636;2022-08-03T02:21:46;21.60;41.00
9425;DHT22;17139;52.140;11.636;2022-08-03T02:24:14;21.30;40.60
9425;DHT22;17139;52.140;11.636;2022-08-03T02:26:42;21.10;40.70
9425;DHT22;17139;52.140;11.636;2022-08-03T02:29:14;21.70;40.80
9425;DHT22;17139;52.140;11.636;2022-08-03T02:31:42;21.40;40.60
9425;DHT22;17139;52.140;11.636;2022-08-03T02:34:13;21.00;40.70
9425;DHT22;17139;52.140;11.636;2022-08-03T02:36:41;20.90;40.90
9425;DHT22;17139;52.140;11.636;2022-08-03T02:39:16;20.70;41.10
9425;DHT22;17139;52.140;11.636;2022-08-03T02:41:48;20.60;41.20
9425;DHT22;17139;52.140;11.636;2022-08-03T02:44:21;20.40;41.20
9425;DHT22;17139;52.140;11.636;2022-08-03T02:46:53;20.40;41.40
9425;DHT22;17139;52.140;11.636;2022-08-03T02:49:22;20.20;41.50
9425;DHT22;17139;52.140;11.636;2022-08-03T02:51:52;20.80;42.10
9425;DHT22;17139;52.140;11.636;2022-08-03T02:54:23;20.50;41.30
9425;DHT22;17139;52.140;11.636;2022-08-03T02:56:53;20.30;41.50
9425;DHT22;17139;52.140;11.636;2022-08-03T02:59:23;20.70;42.30
9425;DHT22;17139;52.140;11.636;2022-08-03T03:01:53;20.40;41.50
9425;DHT22;17139;52.140;11.636;2022-08-03T03:04:21;20.20;41.90
9425;DHT22;17139;52.140;11.636;2022-08-03T03:06:50;20.00;41.80
9425;DHT22;17139;52.140;11.636;2022-08-03T03:09:21;19.90;42.10
9425;DHT22;17139;52.140;11.636;2022-08-03T03:11:49;19.80;42.20
9425;DHT22;17139;52.140;11.636;2022-08-03T03:14:17;19.70;42.30
9425;DHT22;17139;52.140;11.636;2022-08-03T03:16:46;19.60;42.40
9425;DHT22;17139;52.140;11.636;2022-08-03T03:19:15;19.60;42.50
9425;DHT22;17139;52.140;11.636;2022-08-03T03:21:45;19.60;43.10
9425;DHT22;17139;52.140;11.636;2022-08-03T03:24:12;19.50;42.60
9425;DHT22;17139;52.140;11.636;2022-08-03T03:26:42;19.50;42.70
9425;DHT22;17139;52.140;11.636;2022-08-03T03:29:10;19.40;42.70
9425;DHT22;17139;52.140;11.636;2022-08-03T03:31:38;19.30;42.60
9425;DHT22;17139;52.140;11.636;2022-08-03T03:34:06;19.30;42.70
9425;DHT22;17139;52.140;11.636;2022-08-03T03:36:34;19.30;42.60
9425;DHT22;17139;52.140;11.636;2022-08-03T03:39:02;19.20;42.70
9425;DHT22;17139;52.140;11.636;2022-08-03T03:41:29;19.20;42.70
9425;DHT22;17139;52.140;11.636;2022-08-03T03:43:58;19.10;42.60
9425;DHT22;17139;52.140;11.636;2022-08-03T03:46:25;19.10;42.70
9425;DHT22;17139;52.140;11.636;2022-08-03T03:48:52;19.10;43.40
9425;DHT22;17139;52.140;11.636;2022-08-03T03:51:20;19.10;42.80
9425;DHT22;17139;52.140;11.636;2022-08-03T03:53:56;19.40;43.70
9425;DHT22;17139;52.140;11.636;2022-08-03T03:56:24;19.40;42.90
9425;DHT22;17139;52.140;11.636;2022-08-03T03:58:51;19.20;42.70
9425;DHT22;17139;52.140;11.636;2022-08-03T04:01:20;19.50;43.80
9425;DHT22;17139;52.140;11.636;2022-08-03T04:03:48;19.40;42.80
9425;DHT22;17139;52.140;11.636;2022-08-03T04:06:15;19.20;42.70
9425;DHT22;17139;52.140;11.636;2022-08-03T04:09:01;19.20;42.90
9425;DHT22;17139;52.140;11.636;2022-08-03T04:11:49;19.10;42.90
9425;DHT22;17139;52.140;11.636;2022-08-03T04:14:19;19.10;43.00
9425;DHT22;17139;52.140;11.636;2022-08-03T04:16:52;19.00;43.00
9425;DHT22;17139;52.140;11.636;2022-08-03T04:19:26;19.00;43.00
9425;DHT22;17139;52.140;11.636;2022-08-03T04:21:58;19.00;43.10
9425;DHT22;17139;52.140;11.636;2022-08-03T04:24:29;19.00;43.10
9425;DHT22;17139;52.140;11.636;2022-08-03T04:27:00;19.10;43.20
9425;DHT22;17139;52.140;11.636;2022-08-03T04:29:31;19.00;43.10
9425;DHT22;17139;52.140;11.636;2022-08-03T04:32:00;19.10;43.50
9425;DHT22;17139;52.140;11.636;2022-08-03T04:34:28;19.10;43.20
9425;DHT22;17139;52.140;11.636;2022-08-03T04:36:58;19.10;43.10
9425;DHT22;17139;52.140;11.636;2022-08-03T04:39:28;19.10;43.30
9425;DHT22;17139;52.140;11.636;2022-08-03T04:41:59;19.10;43.30
9425;DHT22;17139;52.140;11.636;2022-08-03T04:44:28;19.10;43.20
9425;DHT22;17139;52.140;11.636;2022-08-03T04:46:56;19.20;43.30
9425;DHT22;17139;52.140;11.636;2022-08-03T04:49:25;19.20;43.30
9425;DHT22;17139;52.140;11.636;2022-08-03T04:51:52;19.20;43.30
9425;DHT22;17139;52.140;11.636;2022-08-03T04:54:19;19.20;43.20
9425;DHT22;17139;52.140;11.636;2022-08-03T04:56:46;19.80;44.60
9425;DHT22;17139;52.140;11.636;2022-08-03T04:59:13;19.60;43.30
9425;DHT22;17139;52.140;11.636;2022-08-03T05:01:44;19.50;43.30
9425;DHT22;17139;52.140;11.636;2022-08-03T05:04:11;20.00;44.40
9425;DHT22;17139;52.140;11.636;2022-08-03T05:06:39;19.80;43.30
9425;DHT22;17139;52.140;11.636;2022-08-03T05:09:06;19.70;43.40
9425;DHT22;17139;52.140;11.636;2022-08-03T05:11:33;19.70;43.60
9425;DHT22;17139;52.140;11.636;2022-08-03T05:14:00;19.80;43.90
9425;DHT22;17139;52.140;11.636;2022-08-03T05:16:27;20.00;44.00
9425;DHT22;17139;52.140;11.636;2022-08-03T05:18:54;20.30;44.00
9425;DHT22;17139;52.140;11.636;2022-08-03T05:21:21;20.40;43.70
9425;DHT22;17139;52.140;11.636;2022-08-03T05:23:49;20.50;43.70
9425;DHT22;17139;52.140;11.636;2022-08-03T05:26:16;20.60;43.70
9425;DHT22;17139;52.140;11.636;2022-08-03T05:28:43;21.50;44.00
9425;DHT22;17139;52.140;11.636;2022-08-03T05:31:10;21.30;44.00
9425;DHT22;17139;52.140;11.636;2022-08-03T05:33:38;21.20;43.30
9425;DHT22;17139;52.140;11.636;2022-08-03T05:36:05;21.90;43.30
9425;DHT22;17139;52.140;11.636;2022-08-03T05:38:32;21.60;43.10
9425;DHT22;17139;52.140;11.636;2022-08-03T05:41:01;21.40;43.00
9425;DHT22;17139;52.140;11.636;2022-08-03T05:43:28;21.40;43.40
9425;DHT22;17139;52.140;11.636;2022-08-03T05:45:56;21.40;43.30
9425;DHT22;17139;52.140;11.636;2022-08-03T05:48:24;21.40;43.00
9425;DHT22;17139;52.140;11.636;2022-08-03T05:50:51;21.40;43.00
9425;DHT22;17139;52.140;11.636;2022-08-03T05:53:18;21.40;43.10
9425;DHT22;17139;52.140;11.636;2022-08-03T05:55:45;21.50;43.20
9425;DHT22;17139;52.140;11.636;2022-08-03T05:58:13;21.70;43.20
9425;DHT22;17139;52.140;11.636;2022-08-03T06:00:40;22.00;43.40
9425;DHT22;17139;52.140;11.636;2022-08-03T06:03:07;22.40;43.60
9425;DHT22;17139;52.140;11.636;2022-08-03T06:05:34;23.00;43.40
9425;DHT22;17139;52.140;11.636;2022-08-03T06:08:02;23.50;43.00
9425;DHT22;17139;52.140;11.636;2022-08-03T06:10:29;23.90;42.70
9425;DHT22;17139;52.140;11.636;2022-08-03T06:12:56;24.50;42.40
9425;DHT22;17139;52.140;11.636;2022-08-03T06:15:24;24.90;42.10
9425;DHT22;17139;52.140;11.636;2022-08-03T06:17:51;26.40;39.00
9425;DHT22;17139;52.140;11.636;2022-08-03T06:20:19;26.20;39.80
9425;DHT22;17139;52.140;11.636;2022-08-03T06:22:47;26.20;40.00
9425;DHT22;17139;52.140;11.636;2022-08-03T06:25:14;26.20;40.20
9425;DHT22;17139;52.140;11.636;2022-08-03T06:27:42;26.50;39.20
9425;DHT22;17139;52.140;11.636;2022-08-03T06:30:11;26.40;39.60
9425;DHT22;17139;52.140;11.636;2022-08-03T06:32:40;26.40;39.70
9425;DHT22;17139;52.140;11.636;2022-08-03T06:35:08;26.70;39.00
9425;DHT22;17139;52.140;11.636;2022-08-03T06:37:41;26.50;39.10
9425;DHT22;17139;52.140;11.636;2022-08-03T06:40:10;26.40;39.20
9425;DHT22;17139;52.140;11.636;2022-08-03T06:42:38;26.30;39.40
9425;DHT22;17139;52.140;11.636;2022-08-03T06:45:06;26.10;39.50
9425;DHT22;17139;52.140;11.636;2022-08-03T06:47:36;26.00;39.60
9425;DHT22;17139;52.140;11.636;2022-08-03T06:50:06;25.70;39.80
9425;DHT22;17139;52.140;11.636;2022-08-03T06:52:35;25.60;39.90
9425;DHT22;17139;52.140;11.636;2022-08-03T06:55:02;25.40;40.00
9425;DHT22;17139;52.140;11.636;2022-08-03T06:57:29;25.50;39.80
9425;DHT22;17139;52.140;11.636;2022-08-03T06:59:56;25.30;40.00
9425;DHT22;17139;52.140;11.636;2022-08-03T07:02:26;25.10;40.30
9425;DHT22;17139;52.140;11.636;2022-08-03T07:04:53;25.10;40.10
9425;DHT22;17139;52.140;11.636;2022-08-03T07:07:22;24.90;40.10
9425;DHT22;17139;52.140;11.636;2022-08-03T07:09:49;24.80;40.50
9425;DHT22;17139;52.140;11.636;2022-08-03T07:12:16;24.70;40.40
9425;DHT22;17139;52.140;11.636;2022-08-03T07:14:43;24.60;40.60
9425;DHT22;17139;52.140;11.636;2022-08-03T07:17:10;24.60;40.60
9425;DHT22;17139;52.140;11.636;2022-08-03T07:19:37;24.60;40.70
9425;DHT22;17139;52.140;11.636;2022-08-03T07:22:03;24.60;40.70
9425;DHT22;17139;52.140;11.636;2022-08-03T07:24:32;24.60;40.30
9425;DHT22;17139;52.140;11.636;2022-08-03T07:26:59;25.30;39.20
9425;DHT22;17139;52.140;11.636;2022-08-03T07:29:26;25.10;39.50
9425;DHT22;17139;52.140;11.636;2022-08-03T07:31:53;25.00;39.90
9425;DHT22;17139;52.140;11.636;2022-08-03T07:34:20;25.70;38.60
9425;DHT22;17139;52.140;11.636;2022-08-03T07:36:47;25.50;39.00
9425;DHT22;17139;52.140;11.636;2022-08-03T07:39:14;25.40;39.20
9425;DHT22;17139;52.140;11.636;2022-08-03T07:41:42;25.30;39.20
9425;DHT22;17139;52.140;11.636;2022-08-03T07:44:09;25.30;39.20
9425;DHT22;17139;52.140;11.636;2022-08-03T07:46:36;25.30;39.20
9425;DHT22;17139;52.140;11.636;2022-08-03T07:49:04;25.30;39.00
9425;DHT22;17139;52.140;11.636;2022-08-03T07:51:31;25.40;39.00
9425;DHT22;17139;52.140;11.636;2022-08-03T07:53:58;25.40;38.90
9425;DHT22;17139;52.140;11.636;2022-08-03T07:56:25;26.30;36.40
9425;DHT22;17139;52.140;11.636;2022-08-03T07:58:54;26.00;37.30
9425;DHT22;17139;52.140;11.636;2022-08-03T08:01:21;26.00;37.80
9425;DHT22;17139;52.140;11.636;2022-08-03T08:03:49;26.70;36.00
9425;DHT22;17139;52.140;11.636;2022-08-03T08:06:17;26.50;36.70
9425;DHT22;17139;52.140;11.636;2022-08-03T08:08:44;26.40;37.00
9425;DHT22;17139;52.140;11.636;2022-08-03T08:11:11;26.40;36.90
9425;DHT22;17139;52.140;11.636;2022-08-03T08:13:38;26.40;37.20
9425;DHT22;17139;52.140;11.636;2022-08-03T08:16:06;27.20;34.70
9425;DHT22;17139;52.140;11.636;2022-08-03T08:18:33;26.90;36.00
9425;DHT22;17139;52.140;11.636;2022-08-03T08:21:00;26.90;36.00
9425;DHT22;17139;52.140;11.636;2022-08-03T08:23:28;26.90;36.60
9425;DHT22;17139;52.140;11.636;2022-08-03T08:25:55;26.80;36.90
9425;DHT22;17139;52.140;11.636;2022-08-03T08:28:22;26.80;36.90
9425;DHT22;17139;52.140;11.636;2022-08-03T08:30:49;27.40;34.70
9425;DHT22;17139;52.140;11.636;2022-08-03T08:33:17;27.20;36.00
9425;DHT22;17139;52.140;11.636;2022-08-03T08:35:44;27.80;34.00
9425;DHT22;17139;52.140;11.636;2022-08-03T08:38:11;28.00;33.30
9425;DHT22;17139;52.140;11.636;2022-08-03T08:40:39;27.70;34.90
9425;DHT22;17139;52.140;11.636;2022-08-03T08:43:06;27.60;35.60
9425;DHT22;17139;52.140;11.636;2022-08-03T08:45:33;27.40;36.40
9425;DHT22;17139;52.140;11.636;2022-08-03T08:48:02;27.50;36.10
9425;DHT22;17139;52.140;11.636;2022-08-03T08:50:31;27.40;36.40
9425;DHT22;17139;52.140;11.636;2022-08-03T08:53:01;27.90;34.60
9425;DHT22;17139;52.140;11.636;2022-08-03T08:55:29;27.80;35.50
9425;DHT22;17139;52.140;11.636;2022-08-03T08:58:00;27.70;35.80
9425;DHT22;17139;52.140;11.636;2022-08-03T09:00:28;27.70;36.00
9425;DHT22;17139;52.140;11.636;2022-08-03T09:02:56;27.60;36.10
9425;DHT22;17139;52.140;11.636;2022-08-03T09:05:23;27.60;36.20
9425;DHT22;17139;52.140;11.636;2022-08-03T09:07:52;27.70;36.20
9425;DHT22;17139;52.140;11.636;2022-08-03T09:10:19;27.60;36.10
9425;DHT22;17139;52.140;11.636;2022-08-03T09:12:48;28.00;35.10
9425;DHT22;17139;52.140;11.636;2022-08-03T09:15:20;27.90;35.80
9425;DHT22;17139;52.140;11.636;2022-08-03T09:17:48;27.80;36.60
9425;DHT22;17139;52.140;11.636;2022-08-03T09:20:16;28.20;34.80
9425;DHT22;17139;52.140;11.636;2022-08-03T09:23:00;28.00;35.70
9425;DHT22;17139;52.140;11.636;2022-08-03T09:25:30;28.00;35.80
9425;DHT22;17139;52.140;11.636;2022-08-03T09:28:06;28.00;36.10
9425;DHT22;17139;52.140;11.636;2022-08-03T09:30:33;28.00;36.10
9425;DHT22;17139;52.140;11.636;2022-08-03T09:33:01;28.00;36.40
9425;DHT22;17139;52.140;11.636;2022-08-03T09:35:28;28.00;36.40
9425;DHT22;17139;52.140;11.636;2022-08-03T09:38:10;28.00;36.40
9425;DHT22;17139;52.140;11.636;2022-08-03T09:40:37;28.10;36.40
9425;DHT22;17139;52.140;11.636;2022-08-03T09:43:05;28.80;34.10
9425;DHT22;17139;52.140;11.636;2022-08-03T09:45:34;28.50;35.20
9425;DHT22;17139;52.140;11.636;2022-08-03T09:48:20;28.40;35.50
9425;DHT22;17139;52.140;11.636;2022-08-03T09:50:48;29.10;33.70
9425;DHT22;17139;52.140;11.636;2022-08-03T09:53:18;28.70;34.80
9425;DHT22;17139;52.140;11.636;2022-08-03T09:55:55;28.60;35.30
9425;DHT22;17139;52.140;11.636;2022-08-03T09:58:22;28.60;35.50
9425;DHT22;17139;52.140;11.636;2022-08-03T10:00:55;28.60;34.90
9425;DHT22;17139;52.140;11.636;2022-08-03T10:03:24;28.60;35.50
9425;DHT22;17139;52.140;11.636;2022-08-03T10:05:51;28.60;35.60
9425;DHT22;17139;52.140;11.636;2022-08-03T10:08:20;29.20;33.10
9425;DHT22;17139;52.140;11.636;2022-08-03T10:10:49;29.00;34.50
9425;DHT22;17139;52.140;11.636;2022-08-03T10:13:19;28.80;35.10
9425;DHT22;17139;52.140;11.636;2022-08-03T10:15:47;29.00;34.20
9425;DHT22;17139;52.140;11.636;2022-08-03T10:18:14;28.80;34.90
9425;DHT22;17139;52.140;11.636;2022-08-03T10:20:45;28.80;35.30
9425;DHT22;17139;52.140;11.636;2022-08-03T10:23:13;28.80;35.60
9425;DHT22;17139;52.140;11.636;2022-08-03T10:25:45;28.70;35.60
9425;DHT22;17139;52.140;11.636;2022-08-03T10:28:15;28.70;35.60
9425;DHT22;17139;52.140;11.636;2022-08-03T10:30:47;29.10;34.40
9425;DHT22;17139;52.140;11.636;2022-08-03T10:33:19;29.20;34.10
9425;DHT22;17139;52.140;11.636;2022-08-03T10:35:47;29.00;34.90
9425;DHT22;17139;52.140;11.636;2022-08-03T10:38:19;28.90;35.20
9425;DHT22;17139;52.140;11.636;2022-08-03T10:40:49;29.20;33.90
9425;DHT22;17139;52.140;11.636;2022-08-03T10:43:20;29.10;34.80
9425;DHT22;17139;52.140;11.636;2022-08-03T10:45:48;29.10;35.00
9425;DHT22;17139;52.140;11.636;2022-08-03T10:48:17;29.10;35.10
9425;DHT22;17139;52.140;11.636;2022-08-03T10:50:45;29.10;35.20
9425;DHT22;17139;52.140;11.636;2022-08-03T10:53:14;29.10;35.30
9425;DHT22;17139;52.140;11.636;2022-08-03T10:55:42;29.20;35.30
9425;DHT22;17139;52.140;11.636;2022-08-03T10:58:50;29.20;35.20
9425;DHT22;17139;52.140;11.636;2022-08-03T11:01:18;29.30;35.30
9425;DHT22;17139;52.140;11.636;2022-08-03T11:04:14;30.00;33.40
9425;DHT22;17139;52.140;11.636;2022-08-03T11:06:41;29.80;34.30
9425;DHT22;17139;52.140;11.636;2022-08-03T11:09:16;30.20;32.60
9425;DHT22;17139;52.140;11.636;2022-08-03T11:11:45;29.80;33.80
9425;DHT22;17139;52.140;11.636;2022-08-03T11:14:16;29.70;34.40
9425;DHT22;17139;52.140;11.636;2022-08-03T11:16:45;29.70;34.70
9425;DHT22;17139;52.140;11.636;2022-08-03T11:19:15;29.70;34.80
9425;DHT22;17139;52.140;11.636;2022-08-03T11:21:55;29.70;34.90
9425;DHT22;17139;52.140;11.636;2022-08-03T11:24:56;29.70;34.90
9425;DHT22;17139;52.140;11.636;2022-08-03T11:27:24;29.80;34.60
9425;DHT22;17139;52.140;11.636;2022-08-03T11:29:58;30.60;32.00
9425;DHT22;17139;52.140;11.636;2022-08-03T11:32:51;30.30;33.40
9425;DHT22;17139;52.140;11.636;2022-08-03T11:35:20;30.20;34.10
9425;DHT22;17139;52.140;11.636;2022-08-03T11:38:07;30.00;34.10
9425;DHT22;17139;52.140;11.636;2022-08-03T11:40:37;30.70;32.30
9425;DHT22;17139;52.140;11.636;2022-08-03T11:43:05;30.30;33.20
9425;DHT22;17139;52.140;11.636;2022-08-03T11:45:34;30.20;33.70
9425;DHT22;17139;52.140;11.636;2022-08-03T11:48:12;30.10;34.00
9425;DHT22;17139;52.140;11.636;2022-08-03T11:50:40;30.10;34.10
9425;DHT22;17139;52.140;11.636;2022-08-03T11:53:14;30.30;33.00
9425;DHT22;17139;52.140;11.636;2022-08-03T11:55:41;30.30;33.70
9425;DHT22;17139;52.140;11.636;2022-08-03T11:58:15;30.20;34.00
9425;DHT22;17139;52.140;11.636;2022-08-03T12:00:44;30.20;33.90
9425;DHT22;17139;52.140;11.636;2022-08-03T12:03:13;30.10;34.10
9425;DHT22;17139;52.140;11.636;2022-08-03T12:05:46;30.10;34.20
9425;DHT22;17139;52.140;11.636;2022-08-03T12:08:16;30.00;34.10
9425;DHT22;17139;52.140;11.636;2022-08-03T12:10:49;30.00;34.10
9425;DHT22;17139;52.140;11.636;2022-08-03T12:13:17;30.00;34.40
9425;DHT22;17139;52.140;11.636;2022-08-03T12:15:51;29.90;34.50
9425;DHT22;17139;52.140;11.636;2022-08-03T12:18:19;30.00;34.40
9425;DHT22;17139;52.140;11.636;2022-08-03T12:20:47;30.00;34.40
9425;DHT22;17139;52.140;11.636;2022-08-03T12:23:15;30.80;31.70
9425;DHT22;17139;52.140;11.636;2022-08-03T12:25:43;30.60;33.00
9425;DHT22;17139;52.140;11.636;2022-08-03T12:28:17;30.50;33.40
9425;DHT22;17139;52.140;11.636;2022-08-03T12:30:46;31.00;31.60
9425;DHT22;17139;52.140;11.636;2022-08-03T12:33:18;30.80;32.90
9425;DHT22;17139;52.140;11.636;2022-08-03T12:35:47;30.70;33.40
9425;DHT22;17139;52.140;11.636;2022-08-03T12:38:19;30.70;33.40
9425;DHT22;17139;52.140;11.636;2022-08-03T12:40:58;30.80;33.40
9425;DHT22;17139;52.140;11.636;2022-08-03T12:43:25;30.90;33.30
9425;DHT22;17139;52.140;11.636;2022-08-03T12:46:09;30.90;33.50
9425;DHT22;17139;52.140;11.636;2022-08-03T12:48:57;30.90;33.50
9425;DHT22;17139;52.140;11.636;2022-08-03T12:51:24;31.00;33.60
9425;DHT22;17139;52.140;11.636;2022-08-03T12:53:53;30.90;33.50
9425;DHT22;17139;52.140;11.636;2022-08-03T12:56:20;30.90;33.60
9425;DHT22;17139;52.140;11.636;2022-08-03T12:58:47;31.30;31.30
9425;DHT22;17139;52.140;11.636;2022-08-03T13:01:15;31.20;32.60
9425;DHT22;17139;52.140;11.636;2022-08-03T13:03:44;31.20;33.00
9425;DHT22;17139;52.140;11.636;2022-08-03T13:06:12;31.10;33.00
9425;DHT22;17139;52.140;11.636;2022-08-03T13:08:40;31.10;33.10
9425;DHT22;17139;52.140;11.636;2022-08-03T13:11:24;31.00;33.20
9425;DHT22;17139;52.140;11.636;2022-08-03T13:13:53;31.10;33.30
9425;DHT22;17139;52.140;11.636;2022-08-03T13:16:20;31.10;33.90
9425;DHT22;17139;52.140;11.636;2022-08-03T13:18:51;31.20;32.80
9425;DHT22;17139;52.140;11.636;2022-08-03T13:21:19;31.20;32.80
9425;DHT22;17139;52.140;11.636;2022-08-03T13:23:46;31.20;32.90
9425;DHT22;17139;52.140;11.636;2022-08-03T13:26:14;31.20;33.00
9425;DHT22;17139;52.140;11.636;2022-08-03T13:28:41;31.10;33.10
9425;DHT22;17139;52.140;11.636;2022-08-03T13:31:08;31.00;33.10
9425;DHT22;17139;52.140;11.636;2022-08-03T13:33:35;30.90;33.20
9425;DHT22;17139;52.140;11.636;2022-08-03T13:36:05;30.80;33.30
9425;DHT22;17139;52.140;11.636;2022-08-03T13:38:32;30.70;33.30
9425;DHT22;17139;52.140;11.636;2022-08-03T13:41:01;30.80;33.40
9425;DHT22;17139;52.140;11.636;2022-08-03T13:43:29;30.90;33.30
9425;DHT22;17139;52.140;11.636;2022-08-03T13:45:56;30.90;33.20
9425;DHT22;17139;52.140;11.636;2022-08-03T13:48:23;31.40;31.30
9425;DHT22;17139;52.140;11.636;2022-08-03T13:50:50;31.30;32.40
9425;DHT22;17139;52.140;11.636;2022-08-03T13:53:18;31.30;32.50
9425;DHT22;17139;52.140;11.636;2022-08-03T13:55:45;31.60;31.50
9425;DHT22;17139;52.140;11.636;2022-08-03T13:58:12;31.50;32.30
9425;DHT22;17139;52.140;11.636;2022-08-03T14:00:39;31.50;32.40
9425;DHT22;17139;52.140;11.636;2022-08-03T14:03:06;31.60;32.40
9425;DHT22;17139;52.140;11.636;2022-08-03T14:05:34;31.60;32.60
9425;DHT22;17139;52.140;11.636;2022-08-03T14:08:03;31.60;32.60
9425;DHT22;17139;52.140;11.636;2022-08-03T14:10:33;31.60;32.60
9425;DHT22;17139;52.140;11.636;2022-08-03T14:13:01;31.70;32.60
9425;DHT22;17139;52.140;11.636;2022-08-03T14:15:28;31.80;32.70
9425;DHT22;17139;52.140;11.636;2022-08-03T14:17:55;32.40;30.10
9425;DHT22;17139;52.140;11.636;2022-08-03T14:20:22;32.20;31.40
9425;DHT22;17139;52.140;11.636;2022-08-03T14:22:49;32.20;31.60
9425;DHT22;17139;52.140;11.636;2022-08-03T14:25:16;32.60;30.00
9425;DHT22;17139;52.140;11.636;2022-08-03T14:27:45;32.50;31.00
9425;DHT22;17139;52.140;11.636;2022-08-03T14:30:12;32.30;31.10
9425;DHT22;17139;52.140;11.636;2022-08-03T14:32:40;32.30;31.40
9425;DHT22;17139;52.140;11.636;2022-08-03T14:35:08;32.20;31.60
9425;DHT22;17139;52.140;11.636;2022-08-03T14:37:35;32.00;31.60
9425;DHT22;17139;52.140;11.636;2022-08-03T14:40:02;31.90;31.80
9425;DHT22;17139;52.140;11.636;2022-08-03T14:42:29;31.90;32.00
9425;DHT22;17139;52.140;11.636;2022-08-03T14:44:58;31.90;32.00
9425;DHT22;17139;52.140;11.636;2022-08-03T14:47:25;32.40;29.60
9425;DHT22;17139;52.140;11.636;2022-08-03T14:49:52;32.20;30.90
9425;DHT22;17139;52.140;11.636;2022-08-03T14:52:18;32.20;31.40
9425;DHT22;17139;52.140;11.636;2022-08-03T14:54:45;32.60;29.50
9425;DHT22;17139;52.140;11.636;2022-08-03T14:57:12;32.40;30.60
9425;DHT22;17139;52.140;11.636;2022-08-03T14:59:39;32.20;31.00
9425;DHT22;17139;52.140;11.636;2022-08-03T15:02:08;32.00;31.30
9425;DHT22;17139;52.140;11.636;2022-08-03T15:04:35;31.90;31.40
9425;DHT22;17139;52.140;11.636;2022-08-03T15:07:02;31.90;31.60
9425;DHT22;17139;52.140;11.636;2022-08-03T15:09:29;31.70;31.80
9425;DHT22;17139;52.140;11.636;2022-08-03T15:11:56;31.70;31.90
9425;DHT22;17139;52.140;11.636;2022-08-03T15:14:23;31.50;31.80
9425;DHT22;17139;52.140;11.636;2022-08-03T15:16:50;32.10;29.80
9425;DHT22;17139;52.140;11.636;2022-08-03T15:19:18;32.00;30.90
9425;DHT22;17139;52.140;11.636;2022-08-03T15:21:45;31.90;31.20
9425;DHT22;17139;52.140;11.636;2022-08-03T15:24:12;32.30;29.60
9425;DHT22;17139;52.140;11.636;2022-08-03T15:26:39;32.20;30.50
9425;DHT22;17139;52.140;11.636;2022-08-03T15:29:06;32.10;30.80
9425;DHT22;17139;52.140;11.636;2022-08-03T15:31:33;32.00;30.90
9425;DHT22;17139;52.140;11.636;2022-08-03T15:34:00;31.90;31.00
9425;DHT22;17139;52.140;11.636;2022-08-03T15:36:29;31.80;31.20
9425;DHT22;17139;52.140;11.636;2022-08-03T15:38:57;31.90;32.10
9425;DHT22;17139;52.140;11.636;2022-08-03T15:41:24;31.90;31.50
9425;DHT22;17139;52.140;11.636;2022-08-03T15:43:51;31.90;31.10